UAL88 KEWR-TNCM
Flight info
| Callsign | UAL88 |
|---|---|
| Flight time | N/A |
| Altitude | 37000 |
| Route | ELVAE DCT NECCK DCT DIXIE Y481 OHRYN/N0447F380 Y489 BEHHR/M079F380 Y489 RESQU/M079F370 DCT SKPPR L455 DUNIG/M079F390 L455 KINCH/N0455F390 L455 LENNT DCT SLUGO |
| Aircraft | B38M/M-SDE1FGHILORVWXY/HB1 |
Departure
| Time | 2026-04-23 18:43 |
|---|---|
| Airport | Newark Liberty International Airport (KEWR) |
Arrival
| Time | N/A |
|---|---|
| Airport | Princess Juliana International Airport (TNCM) |
| Time | Latitude | Longitude | Altitude | Speed | Heading |
|---|---|---|---|---|---|
| 2026-04-23 18:31 | 40.69794 | -74.17559 | 24 ft | 0 kts | 150° |
| 2026-04-23 18:32 | 40.69800 | -74.17564 | 28 ft | 2 kts | 149° |
| 2026-04-23 18:33 | 40.69814 | -74.17575 | 25 ft | 2 kts | 150° |
| 2026-04-23 18:33 | 40.69829 | -74.17585 | 27 ft | 2 kts | 151° |
| 2026-04-23 18:33 | 40.69841 | -74.17599 | 25 ft | 2 kts | 105° |
| 2026-04-23 18:33 | 40.69841 | -74.17621 | 30 ft | 2 kts | 77° |
| 2026-04-23 18:34 | 40.69834 | -74.17640 | 27 ft | 2 kts | 40° |
| 2026-04-23 18:34 | 40.69824 | -74.17651 | 27 ft | 1 kts | 40° |
| 2026-04-23 18:36 | 40.69826 | -74.17649 | 28 ft | 0 kts | 40° |
| 2026-04-23 18:37 | 40.69827 | -74.17648 | 28 ft | 1 kts | 40° |
| 2026-04-23 18:37 | 40.69840 | -74.17634 | 25 ft | 4 kts | 40° |
| 2026-04-23 18:37 | 40.69867 | -74.17603 | 25 ft | 6 kts | 40° |
| 2026-04-23 18:38 | 40.69906 | -74.17555 | 24 ft | 9 kts | 44° |
| 2026-04-23 18:38 | 40.69958 | -74.17477 | 25 ft | 13 kts | 69° |
| 2026-04-23 18:38 | 40.69935 | -74.17351 | 29 ft | 16 kts | 118° |
| 2026-04-23 18:38 | 40.69851 | -74.17212 | 24 ft | 23 kts | 134° |
| 2026-04-23 18:39 | 40.69709 | -74.17067 | 27 ft | 29 kts | 152° |
| 2026-04-23 18:39 | 40.69513 | -74.16985 | 24 ft | 31 kts | 169° |
| 2026-04-23 18:39 | 40.69297 | -74.16994 | 26 ft | 32 kts | 197° |
| 2026-04-23 18:39 | 40.69090 | -74.17120 | 24 ft | 33 kts | 205° |
| 2026-04-23 18:40 | 40.68879 | -74.17253 | 25 ft | 34 kts | 205° |
| 2026-04-23 18:40 | 40.68664 | -74.17389 | 27 ft | 34 kts | 206° |
| 2026-04-23 18:40 | 40.68446 | -74.17529 | 27 ft | 35 kts | 206° |
| 2026-04-23 18:40 | 40.68221 | -74.17673 | 26 ft | 36 kts | 204° |
| 2026-04-23 18:41 | 40.67989 | -74.17817 | 24 ft | 37 kts | 207° |
| 2026-04-23 18:41 | 40.67779 | -74.17953 | 25 ft | 23 kts | 205° |
| 2026-04-23 18:41 | 40.67662 | -74.18026 | 25 ft | 19 kts | 206° |
| 2026-04-23 18:41 | 40.67571 | -74.17957 | 25 ft | 19 kts | 88° |
| 2026-04-23 18:42 | 40.67684 | -74.17852 | 26 ft | 30 kts | 25° |
| 2026-04-23 18:42 | 40.68116 | -74.17578 | 24 ft | 106 kts | 27° |
| 2026-04-23 18:42 | 40.68973 | -74.17033 | 27 ft | 165 kts | 25° |
| 2026-04-23 18:42 | 40.70106 | -74.16278 | 287 ft | 193 kts | 18° |
| 2026-04-23 18:43 | 40.71307 | -74.15502 | 1204 ft | 191 kts | 25° |
| 2026-04-23 18:43 | 40.72401 | -74.14480 | 2136 ft | 203 kts | 36° |
| 2026-04-23 18:43 | 40.73502 | -74.13159 | 2770 ft | 225 kts | 38° |
| 2026-04-23 18:43 | 40.74708 | -74.11701 | 3434 ft | 244 kts | 39° |
| 2026-04-23 18:44 | 40.75977 | -74.10203 | 4459 ft | 244 kts | 34° |
| 2026-04-23 18:44 | 40.77448 | -74.09184 | 5368 ft | 246 kts | 9° |
| 2026-04-23 18:44 | 40.79178 | -74.09125 | 6101 ft | 255 kts | 352° |
| 2026-04-23 18:44 | 40.80937 | -74.09235 | 7210 ft | 249 kts | 347° |
| 2026-04-23 18:45 | 40.82515 | -74.10055 | 8280 ft | 244 kts | 323° |
| 2026-04-23 18:45 | 40.83670 | -74.11686 | 9298 ft | 246 kts | 303° |
| 2026-04-23 18:45 | 40.84304 | -74.13790 | 10319 ft | 253 kts | 286° |
| 2026-04-23 18:45 | 40.84311 | -74.16219 | 10838 ft | 283 kts | 264° |
| 2026-04-23 18:46 | 40.83429 | -74.18708 | 11249 ft | 321 kts | 239° |
| 2026-04-23 18:46 | 40.81601 | -74.20615 | 11818 ft | 354 kts | 212° |
| 2026-04-23 18:46 | 40.79141 | -74.21409 | 12629 ft | 372 kts | 193° |
| 2026-04-23 18:46 | 40.76578 | -74.21912 | 13464 ft | 374 kts | 197° |
| 2026-04-23 18:47 | 40.74004 | -74.22538 | 14249 ft | 378 kts | 198° |
| 2026-04-23 18:47 | 40.71412 | -74.23197 | 14995 ft | 382 kts | 198° |
| 2026-04-23 18:47 | 40.68787 | -74.23882 | 15734 ft | 387 kts | 199° |
| 2026-04-23 18:47 | 40.66140 | -74.24586 | 16494 ft | 389 kts | 199° |
| 2026-04-23 18:48 | 40.63475 | -74.25292 | 17206 ft | 394 kts | 199° |
| 2026-04-23 18:48 | 40.60771 | -74.26010 | 17891 ft | 398 kts | 199° |
| 2026-04-23 18:48 | 40.58038 | -74.26734 | 18527 ft | 403 kts | 199° |
| 2026-04-23 18:48 | 40.55207 | -74.27093 | 19107 ft | 419 kts | 183° |
| 2026-04-23 18:49 | 40.52303 | -74.26370 | 19739 ft | 432 kts | 166° |
| 2026-04-23 18:49 | 40.50419 | -74.25477 | 20105 ft | 437 kts | 164° |
| 2026-04-23 18:49 | 40.47551 | -74.24091 | 20644 ft | 442 kts | 164° |
| 2026-04-23 18:49 | 40.44661 | -74.22672 | 21224 ft | 445 kts | 163° |
| 2026-04-23 18:50 | 40.42738 | -74.21722 | 21620 ft | 448 kts | 163° |
| 2026-04-23 18:50 | 40.38815 | -74.19779 | 22343 ft | 454 kts | 163° |
| 2026-04-23 18:50 | 40.35845 | -74.18310 | 22869 ft | 458 kts | 163° |
| 2026-04-23 18:50 | 40.32843 | -74.16870 | 23364 ft | 461 kts | 168° |
| 2026-04-23 18:51 | 40.29714 | -74.16224 | 23844 ft | 452 kts | 185° |
| 2026-04-23 18:51 | 40.26553 | -74.16200 | 24215 ft | 457 kts | 186° |
| 2026-04-23 18:51 | 40.23365 | -74.16209 | 24625 ft | 460 kts | 186° |
| 2026-04-23 18:51 | 40.20158 | -74.16244 | 25083 ft | 463 kts | 185° |
| 2026-04-23 18:52 | 40.16914 | -74.15772 | 25447 ft | 476 kts | 169° |
| 2026-04-23 18:52 | 40.13809 | -74.14205 | 25906 ft | 483 kts | 152° |
| 2026-04-23 18:52 | 40.11078 | -74.11625 | 26255 ft | 487 kts | 134° |
| 2026-04-23 18:52 | 40.08944 | -74.08224 | 26689 ft | 483 kts | 117° |
| 2026-04-23 18:53 | 40.07569 | -74.04273 | 27032 ft | 476 kts | 101° |
| 2026-04-23 18:53 | 40.06693 | -74.00113 | 27470 ft | 477 kts | 99° |
| 2026-04-23 18:53 | 40.05818 | -73.95925 | 27900 ft | 479 kts | 98° |
| 2026-04-23 18:53 | 40.04956 | -73.91720 | 28347 ft | 481 kts | 98° |
| 2026-04-23 18:54 | 40.04096 | -73.87495 | 28773 ft | 482 kts | 97° |
| 2026-04-23 18:54 | 40.03244 | -73.83310 | 29189 ft | 484 kts | 97° |
| 2026-04-23 18:54 | 40.02365 | -73.78998 | 29613 ft | 486 kts | 97° |
| 2026-04-23 18:54 | 40.01494 | -73.74730 | 30017 ft | 488 kts | 97° |
| 2026-04-23 18:55 | 40.00616 | -73.70444 | 30348 ft | 490 kts | 97° |
| 2026-04-23 18:55 | 39.99734 | -73.66140 | 30647 ft | 493 kts | 97° |
| 2026-04-23 18:55 | 39.98842 | -73.61804 | 30936 ft | 497 kts | 97° |
| 2026-04-23 18:55 | 39.97944 | -73.57442 | 31169 ft | 500 kts | 97° |
| 2026-04-23 18:56 | 39.97051 | -73.53110 | 31496 ft | 502 kts | 97° |
| 2026-04-23 18:56 | 39.96140 | -73.48704 | 31776 ft | 505 kts | 97° |
| 2026-04-23 18:56 | 39.95221 | -73.44270 | 32065 ft | 508 kts | 97° |
| 2026-04-23 18:56 | 39.94297 | -73.39824 | 32384 ft | 509 kts | 96° |
| 2026-04-23 18:57 | 39.93370 | -73.35366 | 32766 ft | 509 kts | 96° |
| 2026-04-23 18:57 | 39.92441 | -73.30915 | 33148 ft | 509 kts | 96° |
| 2026-04-23 18:57 | 39.91511 | -73.26462 | 33557 ft | 509 kts | 96° |
| 2026-04-23 18:57 | 39.90579 | -73.22012 | 33950 ft | 509 kts | 95° |
| 2026-04-23 18:58 | 39.89644 | -73.17564 | 34305 ft | 509 kts | 96° |
| 2026-04-23 18:58 | 39.88711 | -73.13130 | 34640 ft | 507 kts | 96° |
| 2026-04-23 18:58 | 39.87778 | -73.08706 | 34995 ft | 506 kts | 96° |
| 2026-04-23 18:58 | 39.86847 | -73.04294 | 35351 ft | 505 kts | 97° |
| 2026-04-23 18:59 | 39.85915 | -72.99889 | 35682 ft | 504 kts | 97° |
| 2026-04-23 18:59 | 39.84982 | -72.95491 | 36014 ft | 504 kts | 97° |
| 2026-04-23 18:59 | 39.84052 | -72.91109 | 36406 ft | 502 kts | 97° |
| 2026-04-23 18:59 | 39.83124 | -72.86743 | 36749 ft | 500 kts | 98° |
| 2026-04-23 19:00 | 39.82112 | -72.82397 | 36955 ft | 506 kts | 103° |
| 2026-04-23 19:00 | 39.79745 | -72.73800 | 36994 ft | 503 kts | 102° |
| 2026-04-23 19:01 | 39.77436 | -72.65209 | 37010 ft | 504 kts | 102° |
| 2026-04-23 19:01 | 39.76282 | -72.60915 | 37295 ft | 503 kts | 103° |
| 2026-04-23 19:01 | 39.75128 | -72.56623 | 37616 ft | 502 kts | 103° |
| 2026-04-23 19:01 | 39.73975 | -72.52345 | 37914 ft | 501 kts | 103° |
| 2026-04-23 19:02 | 39.72822 | -72.48071 | 38040 ft | 502 kts | 103° |
| 2026-04-23 19:02 | 39.70503 | -72.39553 | 37987 ft | 499 kts | 104° |
| 2026-04-23 19:03 | 39.68167 | -72.31060 | 37992 ft | 500 kts | 104° |
| 2026-04-23 19:03 | 39.65810 | -72.22580 | 38002 ft | 502 kts | 107° |
| 2026-04-23 19:03 | 39.64106 | -72.18583 | 37954 ft | 511 kts | 123° |
| 2026-04-23 19:04 | 39.61769 | -72.15087 | 38010 ft | 514 kts | 128° |
| 2026-04-23 19:04 | 39.56942 | -72.08186 | 37987 ft | 517 kts | 129° |
| 2026-04-23 19:05 | 39.52046 | -72.01338 | 37989 ft | 518 kts | 130° |
| 2026-04-23 19:05 | 39.47174 | -71.94561 | 37973 ft | 517 kts | 130° |
| 2026-04-23 19:06 | 39.42279 | -71.87769 | 37993 ft | 517 kts | 130° |
| 2026-04-23 19:06 | 39.37371 | -71.80972 | 37994 ft | 518 kts | 130° |
| 2026-04-23 19:07 | 39.32448 | -71.74170 | 37991 ft | 518 kts | 130° |
| 2026-04-23 19:07 | 39.27524 | -71.67382 | 37989 ft | 518 kts | 130° |
| 2026-04-23 19:08 | 39.22438 | -71.60810 | 37967 ft | 519 kts | 143° |
| 2026-04-23 19:08 | 39.19336 | -71.58449 | 38004 ft | 517 kts | 158° |
| 2026-04-23 19:08 | 39.15920 | -71.57069 | 37973 ft | 513 kts | 174° |
| 2026-04-23 19:09 | 39.08833 | -71.56355 | 37977 ft | 512 kts | 180° |
| 2026-04-23 19:09 | 39.01726 | -71.55862 | 38002 ft | 512 kts | 181° |
| 2026-04-23 19:10 | 38.94629 | -71.55427 | 37999 ft | 508 kts | 182° |
| 2026-04-23 19:10 | 38.87559 | -71.54998 | 37991 ft | 511 kts | 182° |
| 2026-04-23 19:11 | 38.80446 | -71.54568 | 37989 ft | 512 kts | 182° |
| 2026-04-23 19:11 | 38.73336 | -71.54138 | 37986 ft | 509 kts | 182° |
| 2026-04-23 19:12 | 38.67476 | -71.53785 | 37986 ft | 507 kts | 182° |
| 2026-04-23 19:12 | 38.59297 | -71.53292 | 37997 ft | 506 kts | 182° |
| 2026-04-23 19:13 | 38.52259 | -71.52779 | 37976 ft | 506 kts | 181° |
| 2026-04-23 19:13 | 38.45244 | -71.52226 | 37993 ft | 504 kts | 181° |
| 2026-04-23 19:14 | 38.38237 | -71.51678 | 37997 ft | 504 kts | 181° |
| 2026-04-23 19:14 | 38.31230 | -71.51132 | 37955 ft | 504 kts | 181° |
| 2026-04-23 19:15 | 38.24239 | -71.50588 | 38001 ft | 503 kts | 181° |
| 2026-04-23 19:15 | 38.17262 | -71.50046 | 37995 ft | 502 kts | 181° |
| 2026-04-23 19:16 | 38.10284 | -71.49505 | 37993 ft | 502 kts | 181° |
| 2026-04-23 19:16 | 38.03308 | -71.48965 | 37997 ft | 502 kts | 181° |
| 2026-04-23 19:17 | 37.92858 | -71.48159 | 37994 ft | 501 kts | 181° |
| 2026-04-23 19:17 | 37.85893 | -71.47623 | 37959 ft | 501 kts | 181° |
| 2026-04-23 19:18 | 37.79036 | -71.47096 | 37999 ft | 502 kts | 181° |
| 2026-04-23 19:18 | 37.72063 | -71.46561 | 37994 ft | 502 kts | 181° |
| 2026-04-23 19:19 | 37.61610 | -71.45760 | 37971 ft | 502 kts | 181° |
| 2026-04-23 19:20 | 37.51151 | -71.44960 | 37995 ft | 502 kts | 180° |
| 2026-04-23 19:20 | 37.47702 | -71.44205 | 37969 ft | 507 kts | 164° |
| 2026-04-23 19:20 | 37.44439 | -71.42493 | 38026 ft | 509 kts | 157° |
| 2026-04-23 19:21 | 37.34749 | -71.36880 | 38018 ft | 512 kts | 156° |
| 2026-04-23 19:22 | 37.28348 | -71.33093 | 37987 ft | 511 kts | 156° |
| 2026-04-23 19:22 | 37.18695 | -71.27390 | 37987 ft | 511 kts | 156° |
| 2026-04-23 19:23 | 37.12258 | -71.23596 | 37969 ft | 511 kts | 156° |
| 2026-04-23 19:24 | 37.02605 | -71.17921 | 37987 ft | 511 kts | 156° |
| 2026-04-23 19:24 | 36.92953 | -71.12262 | 37985 ft | 511 kts | 156° |
| 2026-04-23 19:25 | 36.80076 | -71.04738 | 37982 ft | 511 kts | 156° |
| 2026-04-23 19:26 | 36.70421 | -70.99114 | 37977 ft | 511 kts | 156° |
| 2026-04-23 19:27 | 36.54328 | -70.89775 | 37971 ft | 510 kts | 156° |
| 2026-04-23 19:28 | 36.41457 | -70.82337 | 37969 ft | 510 kts | 156° |
| 2026-04-23 19:29 | 36.31808 | -70.76778 | 37971 ft | 509 kts | 156° |
| 2026-04-23 19:30 | 36.22171 | -70.71242 | 37969 ft | 509 kts | 156° |
| 2026-04-23 19:31 | 36.12528 | -70.65718 | 37972 ft | 509 kts | 156° |
| 2026-04-23 19:31 | 36.06114 | -70.62051 | 37969 ft | 507 kts | 157° |
| 2026-04-23 19:32 | 35.99757 | -70.58425 | 37965 ft | 507 kts | 157° |
| 2026-04-23 19:32 | 35.93354 | -70.54778 | 37966 ft | 507 kts | 157° |
| 2026-04-23 19:33 | 35.86952 | -70.51136 | 37969 ft | 506 kts | 157° |
| 2026-04-23 19:33 | 35.77380 | -70.45709 | 37969 ft | 504 kts | 159° |
| 2026-04-23 19:34 | 35.74072 | -70.44399 | 37959 ft | 496 kts | 172° |
| 2026-04-23 19:34 | 35.70690 | -70.43531 | 37953 ft | 499 kts | 171° |
| 2026-04-23 19:35 | 35.60523 | -70.40777 | 37974 ft | 499 kts | 171° |
| 2026-04-23 19:35 | 35.53758 | -70.38979 | 37979 ft | 496 kts | 171° |
| 2026-04-23 19:36 | 35.47020 | -70.37191 | 37978 ft | 495 kts | 171° |
| 2026-04-23 19:36 | 35.40281 | -70.35407 | 37980 ft | 496 kts | 171° |
| 2026-04-23 19:37 | 35.33543 | -70.33626 | 37959 ft | 495 kts | 171° |
| 2026-04-23 19:37 | 35.26827 | -70.31853 | 37980 ft | 493 kts | 171° |
| 2026-04-23 19:38 | 35.21253 | -70.30384 | 37979 ft | 493 kts | 171° |
| 2026-04-23 19:38 | 35.13461 | -70.28334 | 37985 ft | 493 kts | 172° |
| 2026-04-23 19:39 | 35.06759 | -70.26574 | 37976 ft | 492 kts | 172° |
| 2026-04-23 19:39 | 35.01160 | -70.25106 | 37983 ft | 491 kts | 172° |
| 2026-04-23 19:40 | 34.94479 | -70.23357 | 37988 ft | 491 kts | 172° |
| 2026-04-23 19:40 | 34.87800 | -70.21612 | 37993 ft | 491 kts | 172° |
| 2026-04-23 19:41 | 34.81121 | -70.19869 | 38000 ft | 490 kts | 172° |
| 2026-04-23 19:41 | 34.74503 | -70.18146 | 37989 ft | 489 kts | 172° |
| 2026-04-23 19:42 | 34.67840 | -70.16413 | 37999 ft | 490 kts | 172° |
| 2026-04-23 19:42 | 34.61177 | -70.14683 | 37998 ft | 490 kts | 172° |
| 2026-04-23 19:43 | 34.54514 | -70.12956 | 37997 ft | 490 kts | 172° |
| 2026-04-23 19:43 | 34.47853 | -70.11232 | 37998 ft | 489 kts | 172° |
| 2026-04-23 19:44 | 34.41190 | -70.09511 | 37998 ft | 489 kts | 172° |
| 2026-04-23 19:44 | 34.34532 | -70.07793 | 38007 ft | 489 kts | 172° |
| 2026-04-23 19:45 | 34.27867 | -70.06077 | 38010 ft | 489 kts | 172° |
| 2026-04-23 19:45 | 34.21207 | -70.04365 | 38010 ft | 489 kts | 172° |
| 2026-04-23 19:46 | 34.14546 | -70.02655 | 38018 ft | 489 kts | 172° |
| 2026-04-23 19:46 | 34.07886 | -70.00948 | 37991 ft | 489 kts | 172° |
| 2026-04-23 19:47 | 34.01229 | -69.99245 | 38025 ft | 489 kts | 172° |
| 2026-04-23 19:47 | 33.94568 | -69.97544 | 38024 ft | 489 kts | 172° |
| 2026-04-23 19:48 | 33.87915 | -69.95847 | 38024 ft | 489 kts | 172° |
| 2026-04-23 19:48 | 33.81256 | -69.94151 | 38013 ft | 489 kts | 172° |
| 2026-04-23 19:49 | 33.74615 | -69.92463 | 38036 ft | 488 kts | 172° |
| 2026-04-23 19:49 | 33.67977 | -69.90778 | 38035 ft | 488 kts | 172° |
| 2026-04-23 19:50 | 33.61337 | -69.89095 | 38034 ft | 488 kts | 172° |
| 2026-04-23 19:50 | 33.54695 | -69.87414 | 38016 ft | 487 kts | 172° |
| 2026-04-23 19:51 | 33.48089 | -69.85745 | 38046 ft | 484 kts | 172° |
| 2026-04-23 19:51 | 33.41503 | -69.84084 | 38046 ft | 484 kts | 172° |
| 2026-04-23 19:52 | 33.34916 | -69.82424 | 38052 ft | 484 kts | 172° |
| 2026-04-23 19:52 | 33.28371 | -69.80779 | 38040 ft | 483 kts | 172° |
| 2026-04-23 19:53 | 33.21816 | -69.79134 | 38059 ft | 481 kts | 172° |
| 2026-04-23 19:53 | 33.15266 | -69.77493 | 38059 ft | 481 kts | 172° |
| 2026-04-23 19:54 | 33.08716 | -69.75854 | 38060 ft | 481 kts | 172° |
| 2026-04-23 19:54 | 33.02165 | -69.74216 | 38059 ft | 480 kts | 172° |
| 2026-04-23 19:55 | 32.95631 | -69.72586 | 38066 ft | 479 kts | 172° |
| 2026-04-23 19:55 | 32.89104 | -69.70960 | 38076 ft | 479 kts | 172° |
| 2026-04-23 19:56 | 32.82576 | -69.69336 | 38072 ft | 479 kts | 172° |
| 2026-04-23 19:56 | 32.76051 | -69.67716 | 38050 ft | 478 kts | 172° |
| 2026-04-23 19:57 | 32.69546 | -69.66102 | 38082 ft | 477 kts | 172° |
| 2026-04-23 19:57 | 32.63046 | -69.64493 | 38081 ft | 477 kts | 172° |
| 2026-04-23 19:58 | 32.56551 | -69.62886 | 38085 ft | 477 kts | 172° |
| 2026-04-23 19:58 | 32.50096 | -69.61293 | 38080 ft | 477 kts | 172° |
| 2026-04-23 19:59 | 32.43567 | -69.59683 | 38087 ft | 476 kts | 172° |
| 2026-04-23 19:59 | 32.37084 | -69.58087 | 38095 ft | 476 kts | 173° |
| 2026-04-23 20:00 | 32.30600 | -69.56493 | 38088 ft | 476 kts | 173° |
| 2026-04-23 20:00 | 32.24113 | -69.54901 | 38073 ft | 476 kts | 173° |
| 2026-04-23 20:01 | 32.17634 | -69.53312 | 38111 ft | 475 kts | 173° |
| 2026-04-23 20:01 | 32.11211 | -69.51741 | 38107 ft | 475 kts | 173° |
| 2026-04-23 20:02 | 32.04741 | -69.50159 | 38100 ft | 475 kts | 173° |
| 2026-04-23 20:02 | 31.98273 | -69.48581 | 38101 ft | 475 kts | 173° |
| 2026-04-23 20:03 | 31.91808 | -69.47005 | 38111 ft | 474 kts | 173° |
| 2026-04-23 20:03 | 31.88569 | -69.46217 | 38244 ft | 475 kts | 173° |
| 2026-04-23 20:03 | 31.85339 | -69.45431 | 38529 ft | 474 kts | 173° |
| 2026-04-23 20:03 | 31.82111 | -69.44647 | 38777 ft | 474 kts | 173° |
| 2026-04-23 20:04 | 31.78885 | -69.43863 | 38979 ft | 473 kts | 173° |
| 2026-04-23 20:04 | 31.75664 | -69.43081 | 39108 ft | 473 kts | 173° |
| 2026-04-23 20:04 | 31.72438 | -69.42298 | 39116 ft | 473 kts | 173° |
| 2026-04-23 20:05 | 31.66001 | -69.40738 | 39106 ft | 472 kts | 173° |
| 2026-04-23 20:05 | 31.59565 | -69.39181 | 39108 ft | 472 kts | 173° |
| 2026-04-23 20:06 | 31.53131 | -69.37627 | 39115 ft | 472 kts | 173° |
| 2026-04-23 20:06 | 31.46698 | -69.36074 | 39113 ft | 472 kts | 173° |
| 2026-04-23 20:07 | 31.40265 | -69.34524 | 39105 ft | 471 kts | 173° |
| 2026-04-23 20:07 | 31.33839 | -69.32978 | 39109 ft | 471 kts | 173° |
| 2026-04-23 20:08 | 31.27414 | -69.31435 | 39116 ft | 471 kts | 174° |
| 2026-04-23 20:08 | 31.20992 | -69.29893 | 39116 ft | 471 kts | 174° |
| 2026-04-23 20:09 | 31.14570 | -69.28355 | 39094 ft | 471 kts | 174° |
| 2026-04-23 20:09 | 31.08163 | -69.26821 | 39119 ft | 470 kts | 174° |
| 2026-04-23 20:10 | 31.02833 | -69.25547 | 39116 ft | 470 kts | 174° |
| 2026-04-23 20:10 | 30.95345 | -69.23760 | 39115 ft | 470 kts | 174° |
| 2026-04-23 20:11 | 30.88941 | -69.22234 | 39106 ft | 470 kts | 174° |
| 2026-04-23 20:11 | 30.82536 | -69.20711 | 39121 ft | 470 kts | 174° |
| 2026-04-23 20:12 | 30.76127 | -69.19188 | 39125 ft | 470 kts | 174° |
| 2026-04-23 20:12 | 30.69773 | -69.17680 | 39120 ft | 469 kts | 174° |
| 2026-04-23 20:13 | 30.63370 | -69.16163 | 39122 ft | 469 kts | 174° |
| 2026-04-23 20:13 | 30.56973 | -69.14649 | 39118 ft | 469 kts | 174° |
| 2026-04-23 20:14 | 30.50575 | -69.13137 | 39122 ft | 469 kts | 174° |
| 2026-04-23 20:14 | 30.44180 | -69.11627 | 39127 ft | 469 kts | 174° |
| 2026-04-23 20:15 | 30.37783 | -69.10119 | 39134 ft | 469 kts | 174° |
| 2026-04-23 20:15 | 30.31388 | -69.08614 | 39120 ft | 468 kts | 175° |
| 2026-04-23 20:16 | 30.25000 | -69.07112 | 39125 ft | 468 kts | 175° |
| 2026-04-23 20:16 | 30.18617 | -69.05614 | 39127 ft | 468 kts | 175° |
| 2026-04-23 20:17 | 30.12232 | -69.04117 | 39124 ft | 468 kts | 175° |
| 2026-04-23 20:17 | 30.05850 | -69.02622 | 39115 ft | 468 kts | 175° |
| 2026-04-23 20:18 | 29.99472 | -69.01131 | 39121 ft | 467 kts | 175° |
| 2026-04-23 20:18 | 29.93101 | -68.99643 | 39124 ft | 467 kts | 175° |
| 2026-04-23 20:19 | 29.86729 | -68.98157 | 39129 ft | 467 kts | 175° |
| 2026-04-23 20:19 | 29.80357 | -68.96673 | 39127 ft | 467 kts | 175° |
| 2026-04-23 20:20 | 29.73992 | -68.95192 | 39123 ft | 466 kts | 176° |
| 2026-04-23 20:20 | 29.67680 | -68.93725 | 39126 ft | 466 kts | 176° |
| 2026-04-23 20:21 | 29.61325 | -68.92251 | 39121 ft | 466 kts | 176° |
| 2026-04-23 20:21 | 29.54972 | -68.90779 | 39124 ft | 466 kts | 176° |
| 2026-04-23 20:22 | 29.48617 | -68.89308 | 39113 ft | 466 kts | 176° |
| 2026-04-23 20:22 | 29.42262 | -68.87839 | 39124 ft | 466 kts | 176° |
| 2026-04-23 20:23 | 29.35906 | -68.86372 | 39124 ft | 466 kts | 176° |
| 2026-04-23 20:23 | 29.29552 | -68.84907 | 39123 ft | 466 kts | 176° |
| 2026-04-23 20:24 | 29.23194 | -68.83443 | 39123 ft | 466 kts | 176° |
| 2026-04-23 20:24 | 29.16838 | -68.81981 | 39123 ft | 466 kts | 176° |
| 2026-04-23 20:25 | 29.10482 | -68.80522 | 39127 ft | 466 kts | 176° |
| 2026-04-23 20:25 | 29.04131 | -68.79064 | 39125 ft | 466 kts | 176° |
| 2026-04-23 20:26 | 28.97775 | -68.77608 | 39120 ft | 466 kts | 176° |
| 2026-04-23 20:26 | 28.92495 | -68.76400 | 39120 ft | 466 kts | 176° |
| 2026-04-23 20:27 | 28.86140 | -68.74947 | 39124 ft | 466 kts | 176° |
| 2026-04-23 20:27 | 28.79785 | -68.73497 | 39120 ft | 466 kts | 176° |
| 2026-04-23 20:28 | 28.73431 | -68.72048 | 39122 ft | 466 kts | 176° |
| 2026-04-23 20:28 | 28.67079 | -68.70602 | 39120 ft | 466 kts | 176° |
| 2026-04-23 20:29 | 28.60733 | -68.69159 | 39111 ft | 465 kts | 177° |
| 2026-04-23 20:29 | 28.54393 | -68.67719 | 39118 ft | 464 kts | 177° |
| 2026-04-23 20:30 | 28.48057 | -68.66282 | 39116 ft | 464 kts | 177° |
| 2026-04-23 20:30 | 28.38555 | -68.64129 | 39118 ft | 464 kts | 178° |
| 2026-04-23 20:31 | 28.32221 | -68.62697 | 39117 ft | 463 kts | 178° |
| 2026-04-23 20:31 | 28.25901 | -68.61269 | 39121 ft | 463 kts | 178° |
| 2026-04-23 20:32 | 28.19601 | -68.59847 | 39112 ft | 459 kts | 178° |
| 2026-04-23 20:32 | 28.13378 | -68.58445 | 39113 ft | 459 kts | 178° |
| 2026-04-23 20:33 | 28.07070 | -68.57025 | 39098 ft | 458 kts | 179° |
| 2026-04-23 20:33 | 28.00873 | -68.55632 | 39111 ft | 457 kts | 179° |
| 2026-04-23 20:34 | 27.94638 | -68.54232 | 39109 ft | 457 kts | 179° |
| 2026-04-23 20:34 | 27.88405 | -68.52834 | 39116 ft | 457 kts | 179° |
| 2026-04-23 20:35 | 27.82167 | -68.51437 | 39106 ft | 457 kts | 179° |
| 2026-04-23 20:35 | 27.75944 | -68.50045 | 39099 ft | 454 kts | 180° |
| 2026-04-23 20:36 | 27.69750 | -68.48660 | 39102 ft | 454 kts | 180° |
| 2026-04-23 20:36 | 27.63555 | -68.47277 | 39105 ft | 454 kts | 180° |
| 2026-04-23 20:37 | 27.57362 | -68.45896 | 39103 ft | 454 kts | 180° |
| 2026-04-23 20:37 | 27.51174 | -68.44518 | 39077 ft | 454 kts | 180° |